sensor_id;sensor_type;location;lat;lon;timestamp;noise_LAeq;noise_LA_min;noise_LA_max;noise_LA01;noise_LA95
74470;Laerm;62918;55.706;37.816;2023-03-24T00:00:12;49.22;46.22;53.19;;
74470;Laerm;62918;55.706;37.816;2023-03-24T00:00:43;50.85;46.78;57.44;;
74470;Laerm;62918;55.706;37.816;2023-03-24T00:01:17;55.35;46.79;64.08;;
74470;Laerm;62918;55.706;37.816;2023-03-24T00:01:48;57.30;50.88;63.72;;
74470;Laerm;62918;55.706;37.816;2023-03-24T00:02:19;61.73;52.32;69.77;;
74470;Laerm;62918;55.706;37.816;2023-03-24T00:02:49;56.30;48.63;65.07;;
74470;Laerm;62918;55.706;37.816;2023-03-24T00:03:20;59.39;47.90;68.01;;
74470;Laerm;62918;55.706;37.816;2023-03-24T00:03:54;55.78;47.93;63.54;;
74470;Laerm;62918;55.706;37.816;2023-03-24T00:04:25;51.41;45.59;61.38;;
74470;Laerm;62918;55.706;37.816;2023-03-24T00:04:56;48.85;45.88;60.13;;
74470;Laerm;62918;55.706;37.816;2023-03-24T00:05:27;52.41;46.45;68.31;;
74470;Laerm;62918;55.706;37.816;2023-03-24T00:06:02;50.82;45.64;59.20;;
74470;Laerm;62918;55.706;37.816;2023-03-24T00:06:34;52.90;47.25;60.59;;
74470;Laerm;62918;55.706;37.816;2023-03-24T00:07:06;56.36;49.56;61.60;;
74470;Laerm;62918;55.706;37.816;2023-03-24T00:07:38;54.19;50.13;65.64;;
74470;Laerm;62918;55.706;37.816;2023-03-24T00:08:09;62.04;51.48;70.13;;
74470;Laerm;62918;55.706;37.816;2023-03-24T00:08:40;57.87;52.10;65.83;;
74470;Laerm;62918;55.706;37.816;2023-03-24T00:09:13;56.21;51.05;61.51;;
74470;Laerm;62918;55.706;37.816;2023-03-24T00:09:44;52.66;46.39;57.41;;
74470;Laerm;62918;55.706;37.816;2023-03-24T00:10:17;57.62;52.08;72.17;;
74470;Laerm;62918;55.706;37.816;2023-03-24T00:10:49;50.34;46.43;55.45;;
74470;Laerm;62918;55.706;37.816;2023-03-24T00:11:20;48.82;46.24;52.85;;
74470;Laerm;62918;55.706;37.816;2023-03-24T00:11:51;55.18;46.98;72.12;;
74470;Laerm;62918;55.706;37.816;2023-03-24T00:12:21;51.38;46.80;70.12;;
74470;Laerm;62918;55.706;37.816;2023-03-24T00:12:52;53.28;48.86;66.72;;
74470;Laerm;62918;55.706;37.816;2023-03-24T00:13:23;52.54;48.76;67.47;;
74470;Laerm;62918;55.706;37.816;2023-03-24T00:13:53;55.51;49.17;64.92;;
74470;Laerm;62918;55.706;37.816;2023-03-24T00:14:27;57.87;50.04;70.52;;
74470;Laerm;62918;55.706;37.816;2023-03-24T00:14:59;53.95;49.73;58.72;;
74470;Laerm;62918;55.706;37.816;2023-03-24T00:15:33;52.01;47.60;60.00;;
74470;Laerm;62918;55.706;37.816;2023-03-24T00:16:11;49.28;45.92;55.46;;
74470;Laerm;62918;55.706;37.816;2023-03-24T00:16:41;53.73;47.94;60.40;;
74470;Laerm;62918;55.706;37.816;2023-03-24T00:17:12;62.89;54.78;70.28;;
74470;Laerm;62918;55.706;37.816;2023-03-24T00:17:44;56.85;47.56;70.53;;
74470;Laerm;62918;55.706;37.816;2023-03-24T00:18:16;58.29;48.52;66.74;;
74470;Laerm;62918;55.706;37.816;2023-03-24T00:18:47;56.25;48.34;63.58;;
74470;Laerm;62918;55.706;37.816;2023-03-24T00:19:22;57.73;50.23;64.99;;
74470;Laerm;62918;55.706;37.816;2023-03-24T00:19:52;58.96;46.09;64.88;;
74470;Laerm;62918;55.706;37.816;2023-03-24T00:20:26;50.25;45.90;59.02;;
74470;Laerm;62918;55.706;37.816;2023-03-24T00:20:58;57.08;48.08;69.13;;
74470;Laerm;62918;55.706;37.816;2023-03-24T00:21:29;52.49;45.70;59.07;;
74470;Laerm;62918;55.706;37.816;2023-03-24T00:22:01;48.74;46.10;51.32;;
74470;Laerm;62918;55.706;37.816;2023-03-24T00:22:33;48.85;45.68;52.48;;
74470;Laerm;62918;55.706;37.816;2023-03-24T00:23:04;56.66;47.17;61.90;;
74470;Laerm;62918;55.706;37.816;2023-03-24T00:23:34;48.99;46.31;52.39;;
74470;Laerm;62918;55.706;37.816;2023-03-24T00:24:05;49.17;46.05;53.67;;
74470;Laerm;62918;55.706;37.816;2023-03-24T00:24:40;48.78;46.10;52.40;;
74470;Laerm;62918;55.706;37.816;2023-03-24T00:25:11;51.92;47.38;58.59;;
74470;Laerm;62918;55.706;37.816;2023-03-24T00:25:41;49.14;46.44;52.19;;
74470;Laerm;62918;55.706;37.816;2023-03-24T00:26:12;52.15;46.37;61.29;;
74470;Laerm;62918;55.706;37.816;2023-03-24T00:26:44;59.44;47.84;67.33;;
74470;Laerm;62918;55.706;37.816;2023-03-24T00:27:16;49.84;46.24;57.08;;
74470;Laerm;62918;55.706;37.816;2023-03-24T00:27:48;53.90;46.33;61.50;;
74470;Laerm;62918;55.706;37.816;2023-03-24T00:28:20;48.66;45.57;52.33;;
74470;Laerm;62918;55.706;37.816;2023-03-24T00:28:51;53.38;46.79;61.12;;
74470;Laerm;62918;55.706;37.816;2023-03-24T00:29:22;53.30;48.14;59.51;;
74470;Laerm;62918;55.706;37.816;2023-03-24T00:29:54;58.23;49.33;66.58;;
74470;Laerm;62918;55.706;37.816;2023-03-24T00:30:28;50.67;46.83;54.91;;
74470;Laerm;62918;55.706;37.816;2023-03-24T00:31:00;48.47;45.84;51.82;;
74470;Laerm;62918;55.706;37.816;2023-03-24T00:31:34;51.89;46.07;58.13;;
74470;Laerm;62918;55.706;37.816;2023-03-24T00:32:09;47.72;44.76;49.79;;
74470;Laerm;62918;55.706;37.816;2023-03-24T00:32:39;51.73;45.70;57.31;;
74470;Laerm;62918;55.706;37.816;2023-03-24T00:33:10;56.28;46.73;62.29;;
74470;Laerm;62918;55.706;37.816;2023-03-24T00:33:42;50.97;46.30;56.96;;
74470;Laerm;62918;55.706;37.816;2023-03-24T00:34:13;53.03;46.24;62.79;;
74470;Laerm;62918;55.706;37.816;2023-03-24T00:34:43;47.88;44.61;50.87;;
74470;Laerm;62918;55.706;37.816;2023-03-24T00:35:15;47.79;44.91;50.36;;
74470;Laerm;62918;55.706;37.816;2023-03-24T00:35:48;51.60;45.56;57.24;;
74470;Laerm;62918;55.706;37.816;2023-03-24T00:36:20;47.72;45.37;50.19;;
74470;Laerm;62918;55.706;37.816;2023-03-24T00:36:52;48.25;45.91;50.62;;
74470;Laerm;62918;55.706;37.816;2023-03-24T00:37:23;50.78;46.94;57.12;;
74470;Laerm;62918;55.706;37.816;2023-03-24T00:37:53;54.65;49.04;60.47;;
74470;Laerm;62918;55.706;37.816;2023-03-24T00:38:24;51.98;47.76;55.97;;
74470;Laerm;62918;55.706;37.816;2023-03-24T00:38:56;56.44;49.88;63.83;;
74470;Laerm;62918;55.706;37.816;2023-03-24T00:39:30;60.08;49.87;70.72;;
74470;Laerm;62918;55.706;37.816;2023-03-24T00:40:01;61.81;49.51;70.89;;
74470;Laerm;62918;55.706;37.816;2023-03-24T00:40:31;54.53;48.38;60.63;;
74470;Laerm;62918;55.706;37.816;2023-03-24T00:41:02;55.29;49.81;64.67;;
74470;Laerm;62918;55.706;37.816;2023-03-24T00:41:34;60.36;51.77;67.95;;
74470;Laerm;62918;55.706;37.816;2023-03-24T00:42:04;54.23;48.68;62.03;;
74470;Laerm;62918;55.706;37.816;2023-03-24T00:42:35;51.14;48.34;53.49;;
74470;Laerm;62918;55.706;37.816;2023-03-24T00:43:09;60.30;50.51;68.51;;
74470;Laerm;62918;55.706;37.816;2023-03-24T00:43:40;56.58;50.49;66.83;;
74470;Laerm;62918;55.706;37.816;2023-03-24T00:44:11;67.56;54.24;81.02;;
74470;Laerm;62918;55.706;37.816;2023-03-24T00:44:49;60.50;50.36;74.12;;
74470;Laerm;62918;55.706;37.816;2023-03-24T00:45:23;54.79;50.87;59.39;;
74470;Laerm;62918;55.706;37.816;2023-03-24T00:45:58;51.60;48.27;55.35;;
74470;Laerm;62918;55.706;37.816;2023-03-24T00:46:31;59.65;46.77;69.12;;
74470;Laerm;62918;55.706;37.816;2023-03-24T00:47:02;56.47;46.64;63.01;;
74470;Laerm;62918;55.706;37.816;2023-03-24T00:47:33;55.38;49.19;60.93;;
74470;Laerm;62918;55.706;37.816;2023-03-24T00:48:07;52.15;45.17;60.75;;
74470;Laerm;62918;55.706;37.816;2023-03-24T00:48:40;59.57;47.24;66.39;;
74470;Laerm;62918;55.706;37.816;2023-03-24T00:49:11;53.35;46.38;63.48;;
74470;Laerm;62918;55.706;37.816;2023-03-24T00:49:42;52.29;45.63;60.53;;
74470;Laerm;62918;55.706;37.816;2023-03-24T00:50:17;51.56;44.56;60.32;;
74470;Laerm;62918;55.706;37.816;2023-03-24T00:50:50;53.85;44.91;59.67;;
74470;Laerm;62918;55.706;37.816;2023-03-24T00:51:21;55.56;44.77;61.40;;
74470;Laerm;62918;55.706;37.816;2023-03-24T00:51:52;60.91;47.64;69.75;;
74470;Laerm;62918;55.706;37.816;2023-03-24T00:52:23;52.18;45.29;59.62;;
74470;Laerm;62918;55.706;37.816;2023-03-24T00:52:55;54.20;48.79;62.45;;
74470;Laerm;62918;55.706;37.816;2023-03-24T00:53:27;50.82;46.02;57.93;;
74470;Laerm;62918;55.706;37.816;2023-03-24T00:54:01;51.89;45.30;57.90;;
74470;Laerm;62918;55.706;37.816;2023-03-24T00:54:32;55.66;48.14;62.15;;
74470;Laerm;62918;55.706;37.816;2023-03-24T00:55:05;59.08;49.98;63.53;;
74470;Laerm;62918;55.706;37.816;2023-03-24T00:55:35;51.92;46.16;62.96;;
74470;Laerm;62918;55.706;37.816;2023-03-24T00:56:07;51.59;46.09;69.18;;
74470;Laerm;62918;55.706;37.816;2023-03-24T00:56:39;52.82;45.44;59.53;;
74470;Laerm;62918;55.706;37.816;2023-03-24T00:57:11;48.06;43.58;54.47;;
74470;Laerm;62918;55.706;37.816;2023-03-24T00:57:46;47.12;44.38;51.11;;
74470;Laerm;62918;55.706;37.816;2023-03-24T00:58:19;52.05;44.29;57.87;;
74470;Laerm;62918;55.706;37.816;2023-03-24T00:58:54;51.60;45.71;59.62;;
74470;Laerm;62918;55.706;37.816;2023-03-24T00:59:26;49.19;45.83;53.05;;
74470;Laerm;62918;55.706;37.816;2023-03-24T01:00:03;47.73;44.60;50.75;;
74470;Laerm;62918;55.706;37.816;2023-03-24T01:00:51;55.96;45.96;64.04;;
74470;Laerm;62918;55.706;37.816;2023-03-24T01:01:25;54.66;46.55;71.52;;
74470;Laerm;62918;55.706;37.816;2023-03-24T01:01:58;50.74;45.51;54.76;;
74470;Laerm;62918;55.706;37.816;2023-03-24T01:02:29;47.24;44.32;49.49;;
74470;Laerm;62918;55.706;37.816;2023-03-24T01:03:00;47.52;44.83;50.19;;
74470;Laerm;62918;55.706;37.816;2023-03-24T01:03:32;50.46;45.65;55.21;;
74470;Laerm;62918;55.706;37.816;2023-03-24T01:04:04;56.40;49.92;61.01;;
74470;Laerm;62918;55.706;37.816;2023-03-24T01:04:35;59.87;53.38;65.25;;
74470;Laerm;62918;55.706;37.816;2023-03-24T01:05:06;54.94;45.04;69.78;;
74470;Laerm;62918;55.706;37.816;2023-03-24T01:05:38;51.37;45.40;63.36;;
74470;Laerm;62918;55.706;37.816;2023-03-24T01:06:10;54.51;45.74;62.71;;
74470;Laerm;62918;55.706;37.816;2023-03-24T01:06:41;50.02;46.58;54.25;;
74470;Laerm;62918;55.706;37.816;2023-03-24T01:07:15;54.22;46.51;59.93;;
74470;Laerm;62918;55.706;37.816;2023-03-24T01:07:49;50.05;46.04;54.21;;
74470;Laerm;62918;55.706;37.816;2023-03-24T01:08:26;57.03;48.11;65.21;;
74470;Laerm;62918;55.706;37.816;2023-03-24T01:08:57;55.03;48.86;62.25;;
74470;Laerm;62918;55.706;37.816;2023-03-24T01:09:28;51.74;45.67;60.08;;
74470;Laerm;62918;55.706;37.816;2023-03-24T01:09:59;48.05;45.64;50.90;;
74470;Laerm;62918;55.706;37.816;2023-03-24T01:10:32;54.05;44.71;64.19;;
74470;Laerm;62918;55.706;37.816;2023-03-24T01:11:04;55.82;45.38;62.00;;
74470;Laerm;62918;55.706;37.816;2023-03-24T01:11:38;47.96;45.26;52.97;;
74470;Laerm;62918;55.706;37.816;2023-03-24T01:12:09;50.01;45.78;59.46;;
74470;Laerm;62918;55.706;37.816;2023-03-24T01:12:39;50.56;47.55;53.38;;
74470;Laerm;62918;55.706;37.816;2023-03-24T01:13:10;51.03;48.28;54.41;;
74470;Laerm;62918;55.706;37.816;2023-03-24T01:13:41;55.52;49.43;61.20;;
74470;Laerm;62918;55.706;37.816;2023-03-24T01:14:12;50.49;45.00;55.43;;
74470;Laerm;62918;55.706;37.816;2023-03-24T01:14:44;48.54;44.80;56.05;;
74470;Laerm;62918;55.706;37.816;2023-03-24T01:15:18;49.37;45.47;60.16;;
74470;Laerm;62918;55.706;37.816;2023-03-24T01:15:50;48.25;45.46;50.38;;
74470;Laerm;62918;55.706;37.816;2023-03-24T01:16:21;53.21;46.78;60.57;;
74470;Laerm;62918;55.706;37.816;2023-03-24T01:16:54;52.03;46.86;57.10;;
74470;Laerm;62918;55.706;37.816;2023-03-24T01:17:26;52.10;45.95;59.80;;
74470;Laerm;62918;55.706;37.816;2023-03-24T01:17:56;53.72;48.38;59.55;;
74470;Laerm;62918;55.706;37.816;2023-03-24T01:18:27;52.86;46.88;57.11;;
74470;Laerm;62918;55.706;37.816;2023-03-24T01:18:58;56.84;46.52;65.51;;
74470;Laerm;62918;55.706;37.816;2023-03-24T01:19:28;57.37;50.45;62.49;;
74470;Laerm;62918;55.706;37.816;2023-03-24T01:20:00;58.06;46.32;67.31;;
74470;Laerm;62918;55.706;37.816;2023-03-24T01:20:36;58.20;45.49;66.43;;
74470;Laerm;62918;55.706;37.816;2023-03-24T01:21:08;57.90;45.73;67.52;;
74470;Laerm;62918;55.706;37.816;2023-03-24T01:21:40;56.62;49.20;62.79;;
74470;Laerm;62918;55.706;37.816;2023-03-24T01:22:11;54.82;46.90;61.72;;
74470;Laerm;62918;55.706;37.816;2023-03-24T01:22:42;49.23;46.55;51.47;;
74470;Laerm;62918;55.706;37.816;2023-03-24T01:23:18;51.32;45.70;58.41;;
74470;Laerm;62918;55.706;37.816;2023-03-24T01:23:49;58.64;48.81;69.12;;
74470;Laerm;62918;55.706;37.816;2023-03-24T01:24:20;49.39;45.90;54.36;;
74470;Laerm;62918;55.706;37.816;2023-03-24T01:24:55;53.88;46.86;61.53;;
74470;Laerm;62918;55.706;37.816;2023-03-24T01:25:25;54.77;46.56;63.54;;
74470;Laerm;62918;55.706;37.816;2023-03-24T01:25:57;49.20;45.95;56.27;;
74470;Laerm;62918;55.706;37.816;2023-03-24T01:26:28;49.18;45.81;54.24;;
74470;Laerm;62918;55.706;37.816;2023-03-24T01:26:58;51.26;47.59;55.51;;
74470;Laerm;62918;55.706;37.816;2023-03-24T01:27:29;57.50;47.65;66.06;;
74470;Laerm;62918;55.706;37.816;2023-03-24T01:28:00;58.00;48.74;64.15;;
74470;Laerm;62918;55.706;37.816;2023-03-24T01:28:32;60.53;50.22;68.72;;
74470;Laerm;62918;55.706;37.816;2023-03-24T01:29:03;49.90;45.88;55.44;;
74470;Laerm;62918;55.706;37.816;2023-03-24T01:29:33;47.63;44.29;49.90;;
74470;Laerm;62918;55.706;37.816;2023-03-24T01:30:05;50.99;45.53;58.71;;
74470;Laerm;62918;55.706;37.816;2023-03-24T01:30:36;50.25;46.41;58.24;;
74470;Laerm;62918;55.706;37.816;2023-03-24T01:31:08;53.81;46.43;60.84;;
74470;Laerm;62918;55.706;37.816;2023-03-24T01:31:39;58.53;45.11;66.15;;
74470;Laerm;62918;55.706;37.816;2023-03-24T01:32:09;57.38;45.43;65.22;;
74470;Laerm;62918;55.706;37.816;2023-03-24T01:32:40;47.86;44.80;55.25;;
74470;Laerm;62918;55.706;37.816;2023-03-24T01:33:11;52.72;45.18;61.47;;
74470;Laerm;62918;55.706;37.816;2023-03-24T01:33:41;56.99;48.76;64.52;;
74470;Laerm;62918;55.706;37.816;2023-03-24T01:34:12;58.32;50.15;65.60;;
74470;Laerm;62918;55.706;37.816;2023-03-24T01:34:43;53.04;48.01;57.48;;
74470;Laerm;62918;55.706;37.816;2023-03-24T01:35:13;58.32;44.90;64.92;;
74470;Laerm;62918;55.706;37.816;2023-03-24T01:35:44;54.65;45.88;60.13;;
74470;Laerm;62918;55.706;37.816;2023-03-24T01:36:15;52.37;44.74;60.02;;
74470;Laerm;62918;55.706;37.816;2023-03-24T01:36:45;48.61;43.85;53.82;;
74470;Laerm;62918;55.706;37.816;2023-03-24T01:37:16;55.08;47.59;63.70;;
74470;Laerm;62918;55.706;37.816;2023-03-24T01:37:47;56.98;50.76;61.04;;
74470;Laerm;62918;55.706;37.816;2023-03-24T01:38:17;53.36;45.72;66.30;;
74470;Laerm;62918;55.706;37.816;2023-03-24T01:38:48;56.06;49.92;61.09;;
74470;Laerm;62918;55.706;37.816;2023-03-24T01:39:19;52.98;45.16;59.11;;
74470;Laerm;62918;55.706;37.816;2023-03-24T01:39:50;48.40;44.10;52.75;;
74470;Laerm;62918;55.706;37.816;2023-03-24T01:40:25;52.80;45.78;60.19;;
74470;Laerm;62918;55.706;37.816;2023-03-24T01:40:56;57.20;44.20;64.69;;
74470;Laerm;62918;55.706;37.816;2023-03-24T01:41:32;58.96;50.97;64.48;;
74470;Laerm;62918;55.706;37.816;2023-03-24T01:42:03;54.02;48.55;60.08;;
74470;Laerm;62918;55.706;37.816;2023-03-24T01:42:34;52.18;44.97;61.14;;
74470;Laerm;62918;55.706;37.816;2023-03-24T01:43:09;53.03;44.28;59.72;;
74470;Laerm;62918;55.706;37.816;2023-03-24T01:43:45;53.74;46.50;60.91;;
74470;Laerm;62918;55.706;37.816;2023-03-24T01:44:32;57.11;50.40;66.15;;
74470;Laerm;62918;55.706;37.816;2023-03-24T01:46:18;57.83;45.66;65.46;;
74470;Laerm;62918;55.706;37.816;2023-03-24T01:46:49;46.56;43.98;48.86;;
74470;Laerm;62918;55.706;37.816;2023-03-24T01:47:20;48.48;44.25;53.21;;
74470;Laerm;62918;55.706;37.816;2023-03-24T01:47:51;57.48;46.79;69.21;;
74470;Laerm;62918;55.706;37.816;2023-03-24T01:48:32;55.68;50.07;72.84;;
74470;Laerm;62918;55.706;37.816;2023-03-24T01:49:06;52.14;45.89;58.71;;
74470;Laerm;62918;55.706;37.816;2023-03-24T01:49:42;52.71;47.79;60.53;;
74470;Laerm;62918;55.706;37.816;2023-03-24T01:50:15;50.80;46.75;55.65;;
74470;Laerm;62918;55.706;37.816;2023-03-24T01:51:00;62.08;46.72;68.47;;
74470;Laerm;62918;55.706;37.816;2023-03-24T01:51:41;54.70;44.72;67.68;;
74470;Laerm;62918;55.706;37.816;2023-03-24T01:52:16;50.81;45.97;57.93;;
74470;Laerm;62918;55.706;37.816;2023-03-24T01:52:48;52.11;46.47;58.48;;
74470;Laerm;62918;55.706;37.816;2023-03-24T01:53:20;48.76;45.84;51.82;;
74470;Laerm;62918;55.706;37.816;2023-03-24T01:54:03;56.00;46.76;63.22;;
74470;Laerm;62918;55.706;37.816;2023-03-24T01:55:10;57.56;46.78;64.75;;
74470;Laerm;62918;55.706;37.816;2023-03-24T01:55:46;52.60;46.51;60.13;;
74470;Laerm;62918;55.706;37.816;2023-03-24T01:56:18;52.30;46.98;57.72;;
74470;Laerm;62918;55.706;37.816;2023-03-24T01:57:41;52.50;48.43;56.87;;
74470;Laerm;62918;55.706;37.816;2023-03-24T01:58:12;51.31;47.17;57.47;;
74470;Laerm;62918;55.706;37.816;2023-03-24T01:58:48;58.38;47.91;65.95;;
74470;Laerm;62918;55.706;37.816;2023-03-24T01:59:24;57.78;49.48;66.52;;
74470;Laerm;62918;55.706;37.816;2023-03-24T02:00:00;52.46;47.98;57.34;;
74470;Laerm;62918;55.706;37.816;2023-03-24T02:00:34;55.79;47.42;61.95;;
74470;Laerm;62918;55.706;37.816;2023-03-24T02:01:07;50.78;46.52;56.82;;
74470;Laerm;62918;55.706;37.816;2023-03-24T02:01:38;49.58;45.71;54.37;;
74470;Laerm;62918;55.706;37.816;2023-03-24T02:02:09;57.33;47.18;63.16;;
74470;Laerm;62918;55.706;37.816;2023-03-24T02:02:45;56.06;47.37;61.26;;
74470;Laerm;62918;55.706;37.816;2023-03-24T02:03:20;47.98;45.29;51.15;;
74470;Laerm;62918;55.706;37.816;2023-03-24T02:03:52;51.66;45.60;59.26;;
74470;Laerm;62918;55.706;37.816;2023-03-24T02:04:23;60.31;52.93;68.36;;
74470;Laerm;62918;55.706;37.816;2023-03-24T02:05:00;56.50;48.34;64.98;;
74470;Laerm;62918;55.706;37.816;2023-03-24T02:05:35;56.09;49.69;61.89;;
74470;Laerm;62918;55.706;37.816;2023-03-24T02:06:07;57.06;50.13;63.70;;
74470;Laerm;62918;55.706;37.816;2023-03-24T02:06:41;59.40;51.48;67.19;;
74470;Laerm;62918;55.706;37.816;2023-03-24T02:08:30;59.53;48.51;70.57;;
74470;Laerm;62918;55.706;37.816;2023-03-24T02:09:02;57.16;49.03;62.79;;
74470;Laerm;62918;55.706;37.816;2023-03-24T02:09:33;56.51;50.89;63.27;;
74470;Laerm;62918;55.706;37.816;2023-03-24T02:10:11;61.75;50.57;66.74;;
74470;Laerm;62918;55.706;37.816;2023-03-24T02:10:43;61.29;48.79;68.10;;
74470;Laerm;62918;55.706;37.816;2023-03-24T02:11:14;57.46;47.50;64.77;;
74470;Laerm;62918;55.706;37.816;2023-03-24T02:11:45;57.49;51.58;65.12;;
74470;Laerm;62918;55.706;37.816;2023-03-24T02:12:15;57.38;49.77;64.06;;
74470;Laerm;62918;55.706;37.816;2023-03-24T02:12:47;60.49;50.80;67.47;;
74470;Laerm;62918;55.706;37.816;2023-03-24T02:13:18;60.27;51.20;67.98;;
74470;Laerm;62918;55.706;37.816;2023-03-24T02:13:53;54.89;48.58;64.44;;
74470;Laerm;62918;55.706;37.816;2023-03-24T02:14:23;53.40;46.82;61.88;;
74470;Laerm;62918;55.706;37.816;2023-03-24T02:14:54;52.78;46.87;56.24;;
74470;Laerm;62918;55.706;37.816;2023-03-24T02:17:08;57.58;48.66;67.93;;
74470;Laerm;62918;55.706;37.816;2023-03-24T02:18:46;57.71;53.87;63.92;;
74470;Laerm;62918;55.706;37.816;2023-03-24T02:20:38;53.16;47.55;62.49;;
74470;Laerm;62918;55.706;37.816;2023-03-24T02:22:32;55.04;48.27;64.36;;
74470;Laerm;62918;55.706;37.816;2023-03-24T02:25:14;56.38;49.72;64.36;;
74470;Laerm;62918;55.706;37.816;2023-03-24T02:30:15;53.62;46.77;60.13;;
74470;Laerm;62918;55.706;37.816;2023-03-24T02:31:28;49.95;46.35;55.42;;
74470;Laerm;62918;55.706;37.816;2023-03-24T02:36:16;56.86;50.41;63.15;;
74470;Laerm;62918;55.706;37.816;2023-03-24T02:40:20;60.42;51.30;68.07;;
74470;Laerm;62918;55.706;37.816;2023-03-24T02:41:54;58.86;49.83;66.44;;
74470;Laerm;62918;55.706;37.816;2023-03-24T02:43:10;56.80;50.70;64.45;;
74470;Laerm;62918;55.706;37.816;2023-03-24T02:43:57;60.99;52.23;68.22;;
74470;Laerm;62918;55.706;37.816;2023-03-24T02:46:52;61.69;54.15;68.00;;
74470;Laerm;62918;55.706;37.816;2023-03-24T02:48:37;62.47;52.70;72.84;;
74470;Laerm;62918;55.706;37.816;2023-03-24T02:49:30;61.54;51.97;69.56;;
74470;Laerm;62918;55.706;37.816;2023-03-24T02:51:50;65.80;56.28;70.65;;
74470;Laerm;62918;55.706;37.816;2023-03-24T02:52:32;65.42;51.68;75.07;;
74470;Laerm;62918;55.706;37.816;2023-03-24T02:53:19;55.27;50.40;62.05;;
74470;Laerm;62918;55.706;37.816;2023-03-24T02:54:15;60.70;52.04;70.16;;
74470;Laerm;62918;55.706;37.816;2023-03-24T02:55:45;62.22;54.07;70.01;;
74470;Laerm;62918;55.706;37.816;2023-03-24T02:56:30;61.07;53.56;70.80;;
74470;Laerm;62918;55.706;37.816;2023-03-24T02:57:11;63.17;55.49;71.15;;
74470;Laerm;62918;55.706;37.816;2023-03-24T02:57:51;63.26;56.72;68.23;;
74470;Laerm;62918;55.706;37.816;2023-03-24T02:58:36;58.40;51.68;65.38;;
74470;Laerm;62918;55.706;37.816;2023-03-24T02:59:25;58.64;50.73;67.55;;
74470;Laerm;62918;55.706;37.816;2023-03-24T03:00:05;62.71;53.24;69.07;;
74470;Laerm;62918;55.706;37.816;2023-03-24T03:00:51;61.96;54.76;66.67;;
74470;Laerm;62918;55.706;37.816;2023-03-24T03:02:15;61.50;54.60;67.72;;
74470;Laerm;62918;55.706;37.816;2023-03-24T03:02:54;58.51;55.38;63.29;;
74470;Laerm;62918;55.706;37.816;2023-03-24T03:04:48;62.68;55.84;67.43;;
74470;Laerm;62918;55.706;37.816;2023-03-24T03:05:30;59.49;52.30;65.90;;
74470;Laerm;62918;55.706;37.816;2023-03-24T03:06:22;59.76;51.44;65.83;;
74470;Laerm;62918;55.706;37.816;2023-03-24T03:06:56;62.20;55.48;67.68;;
74470;Laerm;62918;55.706;37.816;2023-03-24T03:07:30;62.13;54.87;68.76;;
74470;Laerm;62918;55.706;37.816;2023-03-24T03:08:08;62.23;56.48;67.20;;
74470;Laerm;62918;55.706;37.816;2023-03-24T03:08:41;58.51;54.80;63.00;;
74470;Laerm;62918;55.706;37.816;2023-03-24T03:09:15;58.15;52.23;72.72;;
74470;Laerm;62918;55.706;37.816;2023-03-24T03:09:55;56.18;51.18;62.51;;
74470;Laerm;62918;55.706;37.816;2023-03-24T03:10:31;62.28;56.38;66.89;;
74470;Laerm;62918;55.706;37.816;2023-03-24T03:11:05;58.88;53.77;65.58;;
74470;Laerm;62918;55.706;37.816;2023-03-24T03:11:38;62.83;58.78;66.35;;
74470;Laerm;62918;55.706;37.816;2023-03-24T03:12:11;64.80;57.06;70.04;;
74470;Laerm;62918;55.706;37.816;2023-03-24T03:12:43;64.02;54.44;70.60;;
74470;Laerm;62918;55.706;37.816;2023-03-24T03:13:22;61.37;52.58;66.59;;
74470;Laerm;62918;55.706;37.816;2023-03-24T03:13:58;63.72;55.84;69.56;;
74470;Laerm;62918;55.706;37.816;2023-03-24T03:15:41;60.68;56.46;67.41;;
74470;Laerm;62918;55.706;37.816;2023-03-24T03:16:34;61.35;55.45;65.45;;
74470;Laerm;62918;55.706;37.816;2023-03-24T03:17:12;62.79;56.42;68.46;;
74470;Laerm;62918;55.706;37.816;2023-03-24T03:17:53;61.55;53.23;67.28;;
74470;Laerm;62918;55.706;37.816;2023-03-24T03:18:32;61.79;53.75;68.97;;
74470;Laerm;62918;55.706;37.816;2023-03-24T03:19:25;63.79;54.85;71.40;;
74470;Laerm;62918;55.706;37.816;2023-03-24T03:20:01;63.16;56.25;68.08;;
74470;Laerm;62918;55.706;37.816;2023-03-24T03:20:42;62.12;56.34;68.83;;
74470;Laerm;62918;55.706;37.816;2023-03-24T03:21:22;56.99;49.76;68.66;;
74470;Laerm;62918;55.706;37.816;2023-03-24T03:21:55;53.80;49.96;59.50;;
74470;Laerm;62918;55.706;37.816;2023-03-24T03:22:30;60.16;53.10;65.80;;
74470;Laerm;62918;55.706;37.816;2023-03-24T03:23:10;60.72;53.95;69.22;;
74470;Laerm;62918;55.706;37.816;2023-03-24T03:23:55;64.73;57.05;71.66;;
74470;Laerm;62918;55.706;37.816;2023-03-24T03:24:34;64.02;53.12;73.45;;
74470;Laerm;62918;55.706;37.816;2023-03-24T03:25:11;67.31;52.13;76.11;;
74470;Laerm;62918;55.706;37.816;2023-03-24T03:25:47;59.27;54.46;68.71;;
74470;Laerm;62918;55.706;37.816;2023-03-24T03:26:22;64.08;58.08;69.35;;
74470;Laerm;62918;55.706;37.816;2023-03-24T03:27:01;68.44;59.38;76.69;;
74470;Laerm;62918;55.706;37.816;2023-03-24T03:27:34;60.90;54.62;66.59;;
74470;Laerm;62918;55.706;37.816;2023-03-24T03:28:13;58.99;54.96;66.62;;
74470;Laerm;62918;55.706;37.816;2023-03-24T03:28:50;62.88;55.68;68.81;;
74470;Laerm;62918;55.706;37.816;2023-03-24T03:29:30;60.23;54.77;65.86;;
74470;Laerm;62918;55.706;37.816;2023-03-24T03:30:12;61.95;54.54;69.75;;
74470;Laerm;62918;55.706;37.816;2023-03-24T03:30:49;64.12;55.73;72.06;;
74470;Laerm;62918;55.706;37.816;2023-03-24T03:31:24;61.93;55.22;70.32;;
74470;Laerm;62918;55.706;37.816;2023-03-24T03:32:01;58.11;50.44;69.02;;
74470;Laerm;62918;55.706;37.816;2023-03-24T03:32:41;57.72;50.07;64.80;;
74470;Laerm;62918;55.706;37.816;2023-03-24T03:33:20;63.96;55.09;76.06;;
74470;Laerm;62918;55.706;37.816;2023-03-24T03:34:02;64.89;58.20;79.67;;
74470;Laerm;62918;55.706;37.816;2023-03-24T03:34:51;65.83;59.84;71.66;;
74470;Laerm;62918;55.706;37.816;2023-03-24T03:35:35;66.46;57.73;75.48;;
74470;Laerm;62918;55.706;37.816;2023-03-24T03:39:02;67.19;56.11;71.92;;
74470;Laerm;62918;55.706;37.816;2023-03-24T03:39:41;63.13;57.62;67.88;;
74470;Laerm;62918;55.706;37.816;2023-03-24T03:40:37;63.26;57.05;68.46;;
74470;Laerm;62918;55.706;37.816;2023-03-24T03:41:10;65.59;54.59;73.23;;
74470;Laerm;62918;55.706;37.816;2023-03-24T03:41:42;63.17;58.40;66.77;;
74470;Laerm;62918;55.706;37.816;2023-03-24T03:42:13;63.88;58.34;67.79;;
74470;Laerm;62918;55.706;37.816;2023-03-24T03:42:44;63.85;58.10;75.10;;
74470;Laerm;62918;55.706;37.816;2023-03-24T03:43:16;69.70;66.04;74.72;;
74470;Laerm;62918;55.706;37.816;2023-03-24T03:43:47;66.50;59.99;71.71;;
74470;Laerm;62918;55.706;37.816;2023-03-24T03:44:19;60.67;55.99;63.74;;
74470;Laerm;62918;55.706;37.816;2023-03-24T03:44:50;59.06;54.27;62.64;;
74470;Laerm;62918;55.706;37.816;2023-03-24T03:45:21;60.77;55.28;65.97;;